sensor_id;sensor_type;location;lat;lon;timestamp;temperature;humidity
13049;DHT22;6591;51.446;5.404;2022-08-03T00:01:35;21.30;98.40
13049;DHT22;6591;51.446;5.404;2022-08-03T00:04:04;23.20;99.20
13049;DHT22;6591;51.446;5.404;2022-08-03T00:06:31;21.20;98.80
13049;DHT22;6591;51.446;5.404;2022-08-03T00:09:05;21.20;99.00
13049;DHT22;6591;51.446;5.404;2022-08-03T00:11:33;22.00;99.60
13049;DHT22;6591;51.446;5.404;2022-08-03T00:14:02;23.00;99.90
13049;DHT22;6591;51.446;5.404;2022-08-03T00:16:30;21.20;99.50
13049;DHT22;6591;51.446;5.404;2022-08-03T00:18:57;22.20;99.90
13049;DHT22;6591;51.446;5.404;2022-08-03T00:21:27;22.90;99.90
13049;DHT22;6591;51.446;5.404;2022-08-03T00:23:54;21.10;99.70
13049;DHT22;6591;51.446;5.404;2022-08-03T00:26:22;21.20;99.80
13049;DHT22;6591;51.446;5.404;2022-08-03T00:28:49;21.10;99.70
13049;DHT22;6591;51.446;5.404;2022-08-03T00:31:16;21.10;99.70
13049;DHT22;6591;51.446;5.404;2022-08-03T00:34:03;23.60;99.90
13049;DHT22;6591;51.446;5.404;2022-08-03T00:36:32;22.40;99.90
13049;DHT22;6591;51.446;5.404;2022-08-03T00:38:59;21.00;99.90
13049;DHT22;6591;51.446;5.404;2022-08-03T00:41:26;20.80;99.90
13049;DHT22;6591;51.446;5.404;2022-08-03T00:43:53;22.00;99.90
13049;DHT22;6591;51.446;5.404;2022-08-03T00:46:20;21.90;99.90
13049;DHT22;6591;51.446;5.404;2022-08-03T00:48:48;23.00;99.90
13049;DHT22;6591;51.446;5.404;2022-08-03T00:51:16;20.60;99.90
13049;DHT22;6591;51.446;5.404;2022-08-03T00:53:44;20.70;99.90
13049;DHT22;6591;51.446;5.404;2022-08-03T00:56:15;20.60;99.90
13049;DHT22;6591;51.446;5.404;2022-08-03T00:58:44;21.70;99.90
13049;DHT22;6591;51.446;5.404;2022-08-03T01:01:13;22.80;99.90
13049;DHT22;6591;51.446;5.404;2022-08-03T01:03:40;21.70;99.90
13049;DHT22;6591;51.446;5.404;2022-08-03T01:06:28;22.80;99.90
13049;DHT22;6591;51.446;5.404;2022-08-03T01:09:25;20.40;99.90
13049;DHT22;6591;51.446;5.404;2022-08-03T01:15:11;20.30;99.90
13049;DHT22;6591;51.446;5.404;2022-08-03T01:17:58;20.30;99.90
13049;DHT22;6591;51.446;5.404;2022-08-03T01:20:32;20.30;99.90
13049;DHT22;6591;51.446;5.404;2022-08-03T01:23:15;20.30;99.90
13049;DHT22;6591;51.446;5.404;2022-08-03T01:29:43;20.30;99.90
13049;DHT22;6591;51.446;5.404;2022-08-03T01:32:17;20.30;99.90
13049;DHT22;6591;51.446;5.404;2022-08-03T01:35:16;22.30;99.90
13049;DHT22;6591;51.446;5.404;2022-08-03T01:37:56;20.20;99.90
13049;DHT22;6591;51.446;5.404;2022-08-03T01:40:27;20.20;99.90
13049;DHT22;6591;51.446;5.404;2022-08-03T01:42:59;20.20;99.90
13049;DHT22;6591;51.446;5.404;2022-08-03T01:45:31;20.20;99.90
13049;DHT22;6591;51.446;5.404;2022-08-03T01:48:00;20.20;99.90
13049;DHT22;6591;51.446;5.404;2022-08-03T01:50:29;20.20;99.90
13049;DHT22;6591;51.446;5.404;2022-08-03T01:52:58;20.20;99.90
13049;DHT22;6591;51.446;5.404;2022-08-03T01:55:26;20.80;99.90
13049;DHT22;6591;51.446;5.404;2022-08-03T01:57:56;20.20;99.90
13049;DHT22;6591;51.446;5.404;2022-08-03T02:00:34;20.20;99.90
13049;DHT22;6591;51.446;5.404;2022-08-03T02:03:06;21.90;99.90
13049;DHT22;6591;51.446;5.404;2022-08-03T02:05:38;20.20;99.90
13049;DHT22;6591;51.446;5.404;2022-08-03T02:08:08;21.20;99.90
13049;DHT22;6591;51.446;5.404;2022-08-03T02:10:40;21.60;99.90
13049;DHT22;6591;51.446;5.404;2022-08-03T02:13:09;20.20;99.90
13049;DHT22;6591;51.446;5.404;2022-08-03T02:15:38;20.30;99.90
13049;DHT22;6591;51.446;5.404;2022-08-03T02:18:08;20.10;99.90
13049;DHT22;6591;51.446;5.404;2022-08-03T02:20:40;20.10;99.90
13049;DHT22;6591;51.446;5.404;2022-08-03T02:23:10;20.10;99.90
13049;DHT22;6591;51.446;5.404;2022-08-03T02:25:42;21.00;99.90
13049;DHT22;6591;51.446;5.404;2022-08-03T02:28:19;20.10;99.90
13049;DHT22;6591;51.446;5.404;2022-08-03T02:30:52;20.10;99.90
13049;DHT22;6591;51.446;5.404;2022-08-03T02:33:27;20.10;99.90
13049;DHT22;6591;51.446;5.404;2022-08-03T02:35:59;20.10;99.90
13049;DHT22;6591;51.446;5.404;2022-08-03T02:38:32;21.20;99.90
13049;DHT22;6591;51.446;5.404;2022-08-03T02:41:05;20.20;99.90
13049;DHT22;6591;51.446;5.404;2022-08-03T02:43:35;21.90;99.90
13049;DHT22;6591;51.446;5.404;2022-08-03T02:46:26;20.90;99.90
13049;DHT22;6591;51.446;5.404;2022-08-03T02:48:59;20.10;99.90
13049;DHT22;6591;51.446;5.404;2022-08-03T02:51:48;20.20;99.90
13049;DHT22;6591;51.446;5.404;2022-08-03T02:54:19;22.40;99.90
13049;DHT22;6591;51.446;5.404;2022-08-03T02:56:49;21.50;99.90
13049;DHT22;6591;51.446;5.404;2022-08-03T02:59:20;20.20;99.90
13049;DHT22;6591;51.446;5.404;2022-08-03T03:01:48;20.20;99.90
13049;DHT22;6591;51.446;5.404;2022-08-03T03:04:16;20.20;99.90
13049;DHT22;6591;51.446;5.404;2022-08-03T03:06:47;22.00;99.90
13049;DHT22;6591;51.446;5.404;2022-08-03T03:09:16;21.80;99.90
13049;DHT22;6591;51.446;5.404;2022-08-03T03:11:44;20.20;99.90
13049;DHT22;6591;51.446;5.404;2022-08-03T03:14:12;21.40;99.90
13049;DHT22;6591;51.446;5.404;2022-08-03T03:16:59;20.20;99.90
13049;DHT22;6591;51.446;5.404;2022-08-03T03:19:29;20.20;99.90
13049;DHT22;6591;51.446;5.404;2022-08-03T03:22:02;20.40;99.90
13049;DHT22;6591;51.446;5.404;2022-08-03T03:24:34;21.80;99.90
13049;DHT22;6591;51.446;5.404;2022-08-03T03:27:02;20.70;99.90
13049;DHT22;6591;51.446;5.404;2022-08-03T03:29:31;20.10;99.90
13049;DHT22;6591;51.446;5.404;2022-08-03T03:32:05;20.10;99.90
13049;DHT22;6591;51.446;5.404;2022-08-03T03:34:38;20.10;99.90
13049;DHT22;6591;51.446;5.404;2022-08-03T03:37:05;20.70;99.90
13049;DHT22;6591;51.446;5.404;2022-08-03T03:39:32;20.10;99.90
13049;DHT22;6591;51.446;5.404;2022-08-03T03:41:59;20.70;99.90
13049;DHT22;6591;51.446;5.404;2022-08-03T03:44:29;22.20;99.90
13049;DHT22;6591;51.446;5.404;2022-08-03T03:46:57;20.10;99.90
13049;DHT22;6591;51.446;5.404;2022-08-03T03:49:25;21.60;99.90
13049;DHT22;6591;51.446;5.404;2022-08-03T03:51:53;19.90;99.90
13049;DHT22;6591;51.446;5.404;2022-08-03T03:54:21;20.80;99.90
13049;DHT22;6591;51.446;5.404;2022-08-03T03:56:55;19.90;99.90
13049;DHT22;6591;51.446;5.404;2022-08-03T03:59:21;19.90;99.90
13049;DHT22;6591;51.446;5.404;2022-08-03T04:01:48;20.40;99.90
13049;DHT22;6591;51.446;5.404;2022-08-03T04:04:24;19.80;99.90
13049;DHT22;6591;51.446;5.404;2022-08-03T04:07:10;19.80;99.90
13049;DHT22;6591;51.446;5.404;2022-08-03T04:09:56;19.80;99.90
13049;DHT22;6591;51.446;5.404;2022-08-03T04:12:43;19.70;99.90
13049;DHT22;6591;51.446;5.404;2022-08-03T04:15:18;19.90;99.90
13049;DHT22;6591;51.446;5.404;2022-08-03T04:17:50;19.70;99.90
13049;DHT22;6591;51.446;5.404;2022-08-03T04:20:22;19.70;99.90
13049;DHT22;6591;51.446;5.404;2022-08-03T04:22:53;19.70;99.90
13049;DHT22;6591;51.446;5.404;2022-08-03T04:25:26;21.30;99.90
13049;DHT22;6591;51.446;5.404;2022-08-03T04:27:59;18.80;99.90
13049;DHT22;6591;51.446;5.404;2022-08-03T04:30:48;20.80;99.90
13049;DHT22;6591;51.446;5.404;2022-08-03T04:33:16;19.60;99.90
13049;DHT22;6591;51.446;5.404;2022-08-03T04:35:49;19.60;99.90
13049;DHT22;6591;51.446;5.404;2022-08-03T04:38:30;20.70;99.90
13049;DHT22;6591;51.446;5.404;2022-08-03T04:41:04;19.60;99.90
13049;DHT22;6591;51.446;5.404;2022-08-03T04:43:32;19.70;99.90
13049;DHT22;6591;51.446;5.404;2022-08-03T04:46:00;19.70;99.90
13049;DHT22;6591;51.446;5.404;2022-08-03T04:48:29;19.70;99.90
13049;DHT22;6591;51.446;5.404;2022-08-03T04:50:57;19.70;99.90
13049;DHT22;6591;51.446;5.404;2022-08-03T04:53:26;20.60;99.90
13049;DHT22;6591;51.446;5.404;2022-08-03T04:55:54;19.80;99.90
13049;DHT22;6591;51.446;5.404;2022-08-03T04:58:21;19.90;99.90
13049;DHT22;6591;51.446;5.404;2022-08-03T05:00:47;19.90;99.90
13049;DHT22;6591;51.446;5.404;2022-08-03T05:03:16;19.90;99.90
13049;DHT22;6591;51.446;5.404;2022-08-03T05:05:54;20.00;99.90
13049;DHT22;6591;51.446;5.404;2022-08-03T05:08:35;21.20;99.90
13049;DHT22;6591;51.446;5.404;2022-08-03T05:11:12;20.00;99.90
13049;DHT22;6591;51.446;5.404;2022-08-03T05:13:40;20.10;99.90
13049;DHT22;6591;51.446;5.404;2022-08-03T05:16:08;20.10;99.90
13049;DHT22;6591;51.446;5.404;2022-08-03T05:18:34;20.20;99.90
13049;DHT22;6591;51.446;5.404;2022-08-03T05:21:01;21.90;99.90
13049;DHT22;6591;51.446;5.404;2022-08-03T05:23:29;20.30;99.90
13049;DHT22;6591;51.446;5.404;2022-08-03T05:25:56;22.10;99.90
13049;DHT22;6591;51.446;5.404;2022-08-03T05:28:23;20.50;99.90
13049;DHT22;6591;51.446;5.404;2022-08-03T05:30:50;20.50;99.90
13049;DHT22;6591;51.446;5.404;2022-08-03T05:33:16;20.60;99.90
13049;DHT22;6591;51.446;5.404;2022-08-03T05:35:43;20.70;99.90
13049;DHT22;6591;51.446;5.404;2022-08-03T05:38:29;21.80;99.90
13049;DHT22;6591;51.446;5.404;2022-08-03T05:41:04;20.90;99.90
13049;DHT22;6591;51.446;5.404;2022-08-03T05:43:49;21.00;99.90
13049;DHT22;6591;51.446;5.404;2022-08-03T05:46:16;21.80;99.90
13049;DHT22;6591;51.446;5.404;2022-08-03T05:48:50;21.20;99.90
13049;DHT22;6591;51.446;5.404;2022-08-03T05:51:17;21.80;99.90
13049;DHT22;6591;51.446;5.404;2022-08-03T05:53:44;21.50;99.90
13049;DHT22;6591;51.446;5.404;2022-08-03T05:56:11;21.60;99.90
13049;DHT22;6591;51.446;5.404;2022-08-03T05:58:47;21.80;99.90
13049;DHT22;6591;51.446;5.404;2022-08-03T06:01:17;22.00;99.90
13049;DHT22;6591;51.446;5.404;2022-08-03T06:03:47;22.10;99.90
13049;DHT22;6591;51.446;5.404;2022-08-03T06:06:15;22.70;99.90
13049;DHT22;6591;51.446;5.404;2022-08-03T06:08:44;22.40;99.90
13049;DHT22;6591;51.446;5.404;2022-08-03T06:11:12;24.80;99.90
13049;DHT22;6591;51.446;5.404;2022-08-03T06:13:39;22.70;99.90
13049;DHT22;6591;51.446;5.404;2022-08-03T06:16:07;22.90;99.90
13049;DHT22;6591;51.446;5.404;2022-08-03T06:18:35;23.10;99.90
13049;DHT22;6591;51.446;5.404;2022-08-03T06:21:02;24.80;99.90
13049;DHT22;6591;51.446;5.404;2022-08-03T06:23:42;23.50;99.90
13049;DHT22;6591;51.446;5.404;2022-08-03T06:26:19;23.70;99.90
13049;DHT22;6591;51.446;5.404;2022-08-03T06:28:46;23.90;99.90
13049;DHT22;6591;51.446;5.404;2022-08-03T06:31:22;24.10;99.90
13049;DHT22;6591;51.446;5.404;2022-08-03T06:34:03;24.30;99.90
13049;DHT22;6591;51.446;5.404;2022-08-03T06:36:51;24.40;99.90
13049;DHT22;6591;51.446;5.404;2022-08-03T06:39:19;24.70;99.90
13049;DHT22;6591;51.446;5.404;2022-08-03T06:41:49;24.80;99.90
13049;DHT22;6591;51.446;5.404;2022-08-03T06:44:17;27.10;99.90
13049;DHT22;6591;51.446;5.404;2022-08-03T06:46:43;25.10;99.90
13049;DHT22;6591;51.446;5.404;2022-08-03T06:49:10;25.90;99.90
13049;DHT22;6591;51.446;5.404;2022-08-03T06:51:38;25.50;99.90
13049;DHT22;6591;51.446;5.404;2022-08-03T06:54:25;25.60;99.80
13049;DHT22;6591;51.446;5.404;2022-08-03T06:56:53;25.70;99.40
13049;DHT22;6591;51.446;5.404;2022-08-03T06:59:20;25.90;99.30
13049;DHT22;6591;51.446;5.404;2022-08-03T07:02:07;26.00;99.30
13049;DHT22;6591;51.446;5.404;2022-08-03T07:04:35;26.20;98.80
13049;DHT22;6591;51.446;5.404;2022-08-03T07:07:02;27.20;98.80
13049;DHT22;6591;51.446;5.404;2022-08-03T07:09:29;28.30;98.80
13049;DHT22;6591;51.446;5.404;2022-08-03T07:11:56;26.60;97.80
13049;DHT22;6591;51.446;5.404;2022-08-03T07:14:24;27.30;97.70
13049;DHT22;6591;51.446;5.404;2022-08-03T07:16:51;27.40;97.40
13049;DHT22;6591;51.446;5.404;2022-08-03T07:19:18;28.20;97.40
13049;DHT22;6591;51.446;5.404;2022-08-03T07:21:45;29.10;97.40
13049;DHT22;6591;51.446;5.404;2022-08-03T07:24:12;27.10;96.60
13049;DHT22;6591;51.446;5.404;2022-08-03T07:26:40;27.20;96.30
13049;DHT22;6591;51.446;5.404;2022-08-03T07:29:07;27.30;96.00
13049;DHT22;6591;51.446;5.404;2022-08-03T07:31:41;27.40;95.80
13049;DHT22;6591;51.446;5.404;2022-08-03T07:34:08;27.50;95.60
13049;DHT22;6591;51.446;5.404;2022-08-03T07:36:35;27.70;95.10
13049;DHT22;6591;51.446;5.404;2022-08-03T07:39:03;27.70;94.70
13049;DHT22;6591;51.446;5.404;2022-08-03T07:41:44;27.80;94.70
13049;DHT22;6591;51.446;5.404;2022-08-03T07:44:12;27.90;94.60
13049;DHT22;6591;51.446;5.404;2022-08-03T07:46:39;28.60;94.70
13049;DHT22;6591;51.446;5.404;2022-08-03T07:49:06;29.20;94.60
13049;DHT22;6591;51.446;5.404;2022-08-03T07:51:33;28.20;93.80
13049;DHT22;6591;51.446;5.404;2022-08-03T07:54:00;28.30;93.70
13049;DHT22;6591;51.446;5.404;2022-08-03T07:56:27;28.40;93.50
13049;DHT22;6591;51.446;5.404;2022-08-03T07:58:55;28.60;93.40
13049;DHT22;6591;51.446;5.404;2022-08-03T08:01:22;28.80;93.00
13049;DHT22;6591;51.446;5.404;2022-08-03T08:03:49;29.40;92.80
13049;DHT22;6591;51.446;5.404;2022-08-03T08:06:20;29.00;92.10
13049;DHT22;6591;51.446;5.404;2022-08-03T08:08:47;29.10;92.00
13049;DHT22;6591;51.446;5.404;2022-08-03T08:11:14;30.00;92.10
13049;DHT22;6591;51.446;5.404;2022-08-03T08:13:41;29.30;91.70
13049;DHT22;6591;51.446;5.404;2022-08-03T08:16:08;29.40;91.40
13049;DHT22;6591;51.446;5.404;2022-08-03T08:18:35;31.40;91.70
13049;DHT22;6591;51.446;5.404;2022-08-03T08:21:02;29.70;90.80
13049;DHT22;6591;51.446;5.404;2022-08-03T08:23:29;29.70;90.50
13049;DHT22;6591;51.446;5.404;2022-08-03T08:26:10;29.80;90.30
13049;DHT22;6591;51.446;5.404;2022-08-03T08:28:37;30.80;90.60
13049;DHT22;6591;51.446;5.404;2022-08-03T08:31:04;31.40;90.60
13049;DHT22;6591;51.446;5.404;2022-08-03T08:33:31;30.20;89.60
13049;DHT22;6591;51.446;5.404;2022-08-03T08:36:20;30.30;89.30
13049;DHT22;6591;51.446;5.404;2022-08-03T08:38:47;31.80;89.50
13049;DHT22;6591;51.446;5.404;2022-08-03T08:41:15;30.70;87.80
13049;DHT22;6591;51.446;5.404;2022-08-03T08:43:42;28.90;85.70
13049;DHT22;6591;51.446;5.404;2022-08-03T08:46:12;31.00;86.40
13049;DHT22;6591;51.446;5.404;2022-08-03T08:48:50;32.30;86.80
13049;DHT22;6591;51.446;5.404;2022-08-03T08:51:20;31.30;85.70
13049;DHT22;6591;51.446;5.404;2022-08-03T08:53:52;31.50;84.90
13049;DHT22;6591;51.446;5.404;2022-08-03T08:56:24;31.70;83.20
13049;DHT22;6591;51.446;5.404;2022-08-03T08:58:59;32.00;83.20
13049;DHT22;6591;51.446;5.404;2022-08-03T09:01:29;32.00;81.60
13049;DHT22;6591;51.446;5.404;2022-08-03T09:03:56;32.10;81.60
13049;DHT22;6591;51.446;5.404;2022-08-03T09:06:23;32.20;81.20
13049;DHT22;6591;51.446;5.404;2022-08-03T09:08:50;32.30;80.80
13049;DHT22;6591;51.446;5.404;2022-08-03T09:11:21;32.50;79.90
13049;DHT22;6591;51.446;5.404;2022-08-03T09:14:09;32.70;79.00
13049;DHT22;6591;51.446;5.404;2022-08-03T09:16:59;32.90;78.60
13049;DHT22;6591;51.446;5.404;2022-08-03T09:19:31;34.10;78.60
13049;DHT22;6591;51.446;5.404;2022-08-03T09:22:16;33.30;77.10
13049;DHT22;6591;51.446;5.404;2022-08-03T09:27:45;33.40;74.60
13049;DHT22;6591;51.446;5.404;2022-08-03T09:30:17;33.60;76.10
13049;DHT22;6591;51.446;5.404;2022-08-03T09:33:08;33.80;75.40
13049;DHT22;6591;51.446;5.404;2022-08-03T09:38:24;34.30;71.90
13049;DHT22;6591;51.446;5.404;2022-08-03T09:40:54;34.40;72.30
13049;DHT22;6591;51.446;5.404;2022-08-03T09:43:26;34.60;71.50
13049;DHT22;6591;51.446;5.404;2022-08-03T09:46:04;34.70;71.30
13049;DHT22;6591;51.446;5.404;2022-08-03T09:48:33;34.90;69.60
13049;DHT22;6591;51.446;5.404;2022-08-03T09:51:02;35.10;69.20
13049;DHT22;6591;51.446;5.404;2022-08-03T09:53:50;35.20;68.30
13049;DHT22;6591;51.446;5.404;2022-08-03T09:56:37;35.10;67.10
13049;DHT22;6591;51.446;5.404;2022-08-03T09:59:13;35.20;65.60
13049;DHT22;6591;51.446;5.404;2022-08-03T10:01:52;35.20;66.40
13049;DHT22;6591;51.446;5.404;2022-08-03T10:04:20;35.30;66.00
13049;DHT22;6591;51.446;5.404;2022-08-03T10:07:08;35.40;64.90
13049;DHT22;6591;51.446;5.404;2022-08-03T10:09:37;35.50;63.80
13049;DHT22;6591;51.446;5.404;2022-08-03T10:12:11;35.60;64.60
13049;DHT22;6591;51.446;5.404;2022-08-03T10:14:41;35.80;62.90
13049;DHT22;6591;51.446;5.404;2022-08-03T10:17:11;35.90;62.80
13049;DHT22;6591;51.446;5.404;2022-08-03T10:19:38;36.00;62.20
13049;DHT22;6591;51.446;5.404;2022-08-03T10:22:11;36.10;61.90
13049;DHT22;6591;51.446;5.404;2022-08-03T10:24:55;36.30;61.20
13049;DHT22;6591;51.446;5.404;2022-08-03T10:27:28;38.00;61.50
13049;DHT22;6591;51.446;5.404;2022-08-03T10:30:05;36.60;60.10
13049;DHT22;6591;51.446;5.404;2022-08-03T10:32:50;36.70;58.80
13049;DHT22;6591;51.446;5.404;2022-08-03T10:35:24;36.80;58.90
13049;DHT22;6591;51.446;5.404;2022-08-03T10:37:57;37.00;58.80
13049;DHT22;6591;51.446;5.404;2022-08-03T10:40:30;37.80;58.20
13049;DHT22;6591;51.446;5.404;2022-08-03T10:43:20;37.20;57.50
13049;DHT22;6591;51.446;5.404;2022-08-03T10:45:51;37.40;56.70
13049;DHT22;6591;51.446;5.404;2022-08-03T10:48:19;37.40;57.60
13049;DHT22;6591;51.446;5.404;2022-08-03T10:50:48;37.40;56.50
13049;DHT22;6591;51.446;5.404;2022-08-03T10:53:36;37.60;56.60
13049;DHT22;6591;51.446;5.404;2022-08-03T10:56:05;37.70;54.90
13049;DHT22;6591;51.446;5.404;2022-08-03T10:59:10;38.80;56.20
13049;DHT22;6591;51.446;5.404;2022-08-03T11:01:54;38.00;55.60
13049;DHT22;6591;51.446;5.404;2022-08-03T11:04:27;38.10;54.70
13049;DHT22;6591;51.446;5.404;2022-08-03T11:09:45;38.30;53.30
13049;DHT22;6591;51.446;5.404;2022-08-03T11:12:28;38.40;54.00
13049;DHT22;6591;51.446;5.404;2022-08-03T11:15:06;40.10;53.70
13049;DHT22;6591;51.446;5.404;2022-08-03T11:17:35;38.40;52.60
13049;DHT22;6591;51.446;5.404;2022-08-03T11:20:47;38.40;52.80
13049;DHT22;6591;51.446;5.404;2022-08-03T11:23:41;38.40;52.80
13049;DHT22;6591;51.446;5.404;2022-08-03T11:26:32;38.40;52.60
13049;DHT22;6591;51.446;5.404;2022-08-03T11:29:28;38.30;52.90
13049;DHT22;6591;51.446;5.404;2022-08-03T11:31:56;38.30;52.50
13049;DHT22;6591;51.446;5.404;2022-08-03T11:34:24;38.30;52.60
13049;DHT22;6591;51.446;5.404;2022-08-03T11:39:51;38.20;51.10
13049;DHT22;6591;51.446;5.404;2022-08-03T11:44:54;38.00;51.70
13049;DHT22;6591;51.446;5.404;2022-08-03T11:47:24;37.90;51.90
13049;DHT22;6591;51.446;5.404;2022-08-03T11:49:55;37.80;51.70
13049;DHT22;6591;51.446;5.404;2022-08-03T11:52:25;37.70;52.00
13049;DHT22;6591;51.446;5.404;2022-08-03T11:54:59;37.70;51.80
13049;DHT22;6591;51.446;5.404;2022-08-03T11:57:31;37.60;52.00
13049;DHT22;6591;51.446;5.404;2022-08-03T12:00:27;37.70;51.80
13049;DHT22;6591;51.446;5.404;2022-08-03T12:03:06;37.70;52.30
13049;DHT22;6591;51.446;5.404;2022-08-03T12:05:52;37.80;51.80
13049;DHT22;6591;51.446;5.404;2022-08-03T12:10:55;38.00;51.20
13049;DHT22;6591;51.446;5.404;2022-08-03T12:13:23;38.20;51.60
13049;DHT22;6591;51.446;5.404;2022-08-03T12:16:22;38.20;51.50
13049;DHT22;6591;51.446;5.404;2022-08-03T12:18:55;38.50;51.50
13049;DHT22;6591;51.446;5.404;2022-08-03T12:21:26;38.80;51.40
13049;DHT22;6591;51.446;5.404;2022-08-03T12:24:03;39.00;51.20
13049;DHT22;6591;51.446;5.404;2022-08-03T12:26:46;39.30;49.60
13049;DHT22;6591;51.446;5.404;2022-08-03T12:29:25;39.30;49.40
13049;DHT22;6591;51.446;5.404;2022-08-03T12:31:52;39.20;48.90
13049;DHT22;6591;51.446;5.404;2022-08-03T12:34:22;39.00;49.00
13049;DHT22;6591;51.446;5.404;2022-08-03T12:36:54;38.90;49.00
13049;DHT22;6591;51.446;5.404;2022-08-03T12:39:23;38.90;49.30
13049;DHT22;6591;51.446;5.404;2022-08-03T12:41:54;38.90;49.70
13049;DHT22;6591;51.446;5.404;2022-08-03T12:44:32;38.90;49.40
13049;DHT22;6591;51.446;5.404;2022-08-03T12:47:01;38.90;49.00
13049;DHT22;6591;51.446;5.404;2022-08-03T12:49:48;39.10;49.50
13049;DHT22;6591;51.446;5.404;2022-08-03T12:52:17;39.20;49.10
13049;DHT22;6591;51.446;5.404;2022-08-03T12:54:59;39.30;49.30
13049;DHT22;6591;51.446;5.404;2022-08-03T12:57:41;39.50;48.60
13049;DHT22;6591;51.446;5.404;2022-08-03T13:00:16;39.70;47.90
13049;DHT22;6591;51.446;5.404;2022-08-03T13:03:03;39.70;47.80
13049;DHT22;6591;51.446;5.404;2022-08-03T13:05:53;39.50;47.60
13049;DHT22;6591;51.446;5.404;2022-08-03T13:08:23;39.30;47.80
13049;DHT22;6591;51.446;5.404;2022-08-03T13:10:51;39.10;48.20
13049;DHT22;6591;51.446;5.404;2022-08-03T13:13:18;38.90;48.20
13049;DHT22;6591;51.446;5.404;2022-08-03T13:16:03;40.20;49.80
13049;DHT22;6591;51.446;5.404;2022-08-03T13:18:30;38.60;48.80
13049;DHT22;6591;51.446;5.404;2022-08-03T13:20:59;38.60;48.70
13049;DHT22;6591;51.446;5.404;2022-08-03T13:23:26;38.50;48.50
13049;DHT22;6591;51.446;5.404;2022-08-03T13:25:53;38.40;48.70
13049;DHT22;6591;51.446;5.404;2022-08-03T13:28:22;38.40;49.00
13049;DHT22;6591;51.446;5.404;2022-08-03T13:30:49;37.20;48.60
13049;DHT22;6591;51.446;5.404;2022-08-03T13:33:16;38.50;49.10
13049;DHT22;6591;51.446;5.404;2022-08-03T13:35:43;38.70;49.40
13049;DHT22;6591;51.446;5.404;2022-08-03T13:38:10;38.90;49.00
13049;DHT22;6591;51.446;5.404;2022-08-03T13:40:37;39.10;48.70
13049;DHT22;6591;51.446;5.404;2022-08-03T13:43:07;39.30;48.60
13049;DHT22;6591;51.446;5.404;2022-08-03T13:45:34;39.60;48.40
13049;DHT22;6591;51.446;5.404;2022-08-03T13:48:02;39.80;47.60
13049;DHT22;6591;51.446;5.404;2022-08-03T13:50:29;39.90;47.50
13049;DHT22;6591;51.446;5.404;2022-08-03T13:52:59;40.00;48.10
13049;DHT22;6591;51.446;5.404;2022-08-03T13:55:26;40.10;46.80
13049;DHT22;6591;51.446;5.404;2022-08-03T13:57:53;40.10;46.90
13049;DHT22;6591;51.446;5.404;2022-08-03T14:00:33;40.10;47.30
13049;DHT22;6591;51.446;5.404;2022-08-03T14:03:01;40.20;46.30
13049;DHT22;6591;51.446;5.404;2022-08-03T14:05:41;40.20;46.50
13049;DHT22;6591;51.446;5.404;2022-08-03T14:08:09;40.20;46.90
13049;DHT22;6591;51.446;5.404;2022-08-03T14:10:41;40.30;46.70
13049;DHT22;6591;51.446;5.404;2022-08-03T14:13:13;40.30;46.40
13049;DHT22;6591;51.446;5.404;2022-08-03T14:15:44;40.90;46.60
13049;DHT22;6591;51.446;5.404;2022-08-03T14:18:17;40.60;46.60
13049;DHT22;6591;51.446;5.404;2022-08-03T14:21:00;40.90;47.10
13049;DHT22;6591;51.446;5.404;2022-08-03T14:23:33;41.20;46.30
13049;DHT22;6591;51.446;5.404;2022-08-03T14:26:07;41.50;46.00
13049;DHT22;6591;51.446;5.404;2022-08-03T14:28:35;41.80;45.40
13049;DHT22;6591;51.446;5.404;2022-08-03T14:31:03;42.00;44.40
13049;DHT22;6591;51.446;5.404;2022-08-03T14:33:50;40.70;43.20
13049;DHT22;6591;51.446;5.404;2022-08-03T14:36:17;42.20;43.40
13049;DHT22;6591;51.446;5.404;2022-08-03T14:38:45;42.10;42.90
13049;DHT22;6591;51.446;5.404;2022-08-03T14:41:12;42.00;43.10
13049;DHT22;6591;51.446;5.404;2022-08-03T14:43:46;42.00;43.40
13049;DHT22;6591;51.446;5.404;2022-08-03T14:46:28;41.90;43.50
13049;DHT22;6591;51.446;5.404;2022-08-03T14:48:55;42.00;43.30
13049;DHT22;6591;51.446;5.404;2022-08-03T14:51:42;42.10;42.70
13049;DHT22;6591;51.446;5.404;2022-08-03T14:54:19;42.10;42.80
13049;DHT22;6591;51.446;5.404;2022-08-03T14:56:46;42.20;42.70
13049;DHT22;6591;51.446;5.404;2022-08-03T14:59:13;42.30;42.10
13049;DHT22;6591;51.446;5.404;2022-08-03T15:01:40;42.30;42.20
13049;DHT22;6591;51.446;5.404;2022-08-03T15:04:27;40.40;40.80
13049;DHT22;6591;51.446;5.404;2022-08-03T15:06:54;42.40;42.00
13049;DHT22;6591;51.446;5.404;2022-08-03T15:09:21;42.40;42.20
13049;DHT22;6591;51.446;5.404;2022-08-03T15:11:49;42.50;42.10
13049;DHT22;6591;51.446;5.404;2022-08-03T15:14:18;42.70;42.60
13049;DHT22;6591;51.446;5.404;2022-08-03T15:16:53;42.70;41.60
13049;DHT22;6591;51.446;5.404;2022-08-03T15:19:20;42.80;41.50
13049;DHT22;6591;51.446;5.404;2022-08-03T15:22:07;43.00;41.60
13049;DHT22;6591;51.446;5.404;2022-08-03T15:24:34;43.20;41.60
13049;DHT22;6591;51.446;5.404;2022-08-03T15:27:01;43.20;41.10
13049;DHT22;6591;51.446;5.404;2022-08-03T15:29:32;43.40;41.30
13049;DHT22;6591;51.446;5.404;2022-08-03T15:32:19;43.60;41.20
13049;DHT22;6591;51.446;5.404;2022-08-03T15:34:46;44.00;40.90
13049;DHT22;6591;51.446;5.404;2022-08-03T15:37:17;44.20;40.40
13049;DHT22;6591;51.446;5.404;2022-08-03T15:39:45;44.40;40.30
13049;DHT22;6591;51.446;5.404;2022-08-03T15:42:28;44.60;39.80
13049;DHT22;6591;51.446;5.404;2022-08-03T15:44:56;44.70;39.50
13049;DHT22;6591;51.446;5.404;2022-08-03T15:47:23;44.80;39.10
13049;DHT22;6591;51.446;5.404;2022-08-03T15:49:50;44.80;39.10
13049;DHT22;6591;51.446;5.404;2022-08-03T15:52:17;44.80;38.90
13049;DHT22;6591;51.446;5.404;2022-08-03T15:54:44;44.90;38.70
13049;DHT22;6591;51.446;5.404;2022-08-03T15:57:11;45.00;38.60
13049;DHT22;6591;51.446;5.404;2022-08-03T15:59:38;45.00;37.90
13049;DHT22;6591;51.446;5.404;2022-08-03T16:02:05;45.00;38.20
13049;DHT22;6591;51.446;5.404;2022-08-03T16:04:33;44.80;38.00
13049;DHT22;6591;51.446;5.404;2022-08-03T16:07:00;44.80;38.00
13049;DHT22;6591;51.446;5.404;2022-08-03T16:09:27;44.80;37.90
13049;DHT22;6591;51.446;5.404;2022-08-03T16:12:09;44.70;37.80
13049;DHT22;6591;51.446;5.404;2022-08-03T16:14:43;44.60;38.20
13049;DHT22;6591;51.446;5.404;2022-08-03T16:17:19;44.40;38.00
13049;DHT22;6591;51.446;5.404;2022-08-03T16:19:47;44.50;38.20
13049;DHT22;6591;51.446;5.404;2022-08-03T16:22:15;44.50;38.00
13049;DHT22;6591;51.446;5.404;2022-08-03T16:24:45;44.50;38.10
13049;DHT22;6591;51.446;5.404;2022-08-03T16:27:12;44.70;38.00
13049;DHT22;6591;51.446;5.404;2022-08-03T16:29:59;45.00;38.00
13049;DHT22;6591;51.446;5.404;2022-08-03T16:32:26;45.20;37.90
13049;DHT22;6591;51.446;5.404;2022-08-03T16:34:53;44.40;36.90
13049;DHT22;6591;51.446;5.404;2022-08-03T16:37:20;45.70;37.30
13049;DHT22;6591;51.446;5.404;2022-08-03T16:40:06;46.10;37.20
13049;DHT22;6591;51.446;5.404;2022-08-03T16:42:45;46.30;37.20